createdAt,value
2023-05-14T00:01:23.888Z,51.93
2023-05-14T00:03:50.911Z,52.03
2023-05-14T00:06:17.843Z,50.37
2023-05-14T00:08:44.666Z,51.17
2023-05-14T00:11:11.493Z,53.13
2023-05-14T00:13:38.421Z,51.77
2023-05-14T00:16:05.654Z,52.40
2023-05-14T00:18:32.740Z,52.20
2023-05-14T00:20:59.587Z,51.80
2023-05-14T00:23:26.386Z,49.87
2023-05-14T00:25:53.215Z,52.63
2023-05-14T00:28:20.698Z,51.70
2023-05-14T00:30:48.538Z,53.97
2023-05-14T00:33:15.998Z,52.50
2023-05-14T00:35:43.471Z,50.40
2023-05-14T00:38:16.792Z,52.50
2023-05-14T00:40:45.899Z,50.77
2023-05-14T00:43:12.770Z,54.10
2023-05-14T00:45:39.782Z,54.40
2023-05-14T00:48:07.169Z,54.50
2023-05-14T00:50:34.614Z,50.73
2023-05-14T00:53:01.683Z,52.20
2023-05-14T00:55:30.804Z,54.30
2023-05-14T00:57:58.958Z,53.20
2023-05-14T01:00:26.152Z,53.13
2023-05-14T01:02:53.041Z,52.50
2023-05-14T01:05:20.255Z,53.30
2023-05-14T01:08:07.700Z,53.97
2023-05-14T01:10:45.866Z,52.47
2023-05-14T01:13:27.883Z,51.03
2023-05-14T01:15:58.128Z,51.97
2023-05-14T01:18:26.101Z,51.50
2023-05-14T01:20:54.522Z,53.27
2023-05-14T01:23:21.296Z,53.37
2023-05-14T01:25:48.092Z,52.60
2023-05-14T01:28:20.217Z,52.17
2023-05-14T01:31:16.269Z,55.73
2023-05-14T01:33:44.758Z,50.33
2023-05-14T01:36:11.653Z,53.30
2023-05-14T01:38:39.714Z,53.87
2023-05-14T01:41:06.790Z,53.70
2023-05-14T01:43:34.513Z,52.03
2023-05-14T01:46:01.465Z,51.50
2023-05-14T01:48:29.890Z,54.40
2023-05-14T01:50:57.135Z,55.00
2023-05-14T01:53:23.964Z,54.40
2023-05-14T01:55:50.826Z,53.10
2023-05-14T01:58:17.708Z,52.13
2023-05-14T02:00:44.497Z,54.77
2023-05-14T02:03:11.438Z,54.33
2023-05-14T02:05:38.341Z,55.33
2023-05-14T02:08:05.428Z,52.60
2023-05-14T02:10:32.708Z,54.67
2023-05-14T02:12:59.531Z,53.83
2023-05-14T02:15:26.443Z,54.63
2023-05-14T02:17:53.279Z,55.77
2023-05-14T02:20:20.135Z,54.30
2023-05-14T02:22:46.966Z,55.53
2023-05-14T02:25:13.774Z,56.23
2023-05-14T02:27:40.600Z,52.53
2023-05-14T02:30:08.015Z,52.07
2023-05-14T02:32:34.874Z,54.10
2023-05-14T02:35:01.908Z,51.57
2023-05-14T02:37:28.710Z,50.53
2023-05-14T02:39:55.487Z,53.13
2023-05-14T02:42:22.916Z,52.60
2023-05-14T02:44:49.814Z,52.03
2023-05-14T02:47:16.620Z,51.60
2023-05-14T02:49:43.404Z,52.60
2023-05-14T02:52:10.383Z,54.47
2023-05-14T02:54:37.271Z,54.10
2023-05-14T02:57:04.391Z,52.03
2023-05-14T02:59:31.655Z,53.33
2023-05-14T03:01:59.093Z,50.97
2023-05-14T03:04:26.574Z,50.57
2023-05-14T03:06:53.395Z,52.90
2023-05-14T03:09:20.266Z,54.87
2023-05-14T03:11:47.125Z,54.23
2023-05-14T03:14:14.106Z,53.70
2023-05-14T03:16:42.385Z,51.07
2023-05-14T03:19:09.999Z,57.23
2023-05-14T03:21:37.100Z,56.60
2023-05-14T03:24:04.019Z,53.37
2023-05-14T03:26:30.892Z,53.10
2023-05-14T03:28:57.693Z,53.17
2023-05-14T03:31:24.998Z,51.63
2023-05-14T03:33:52.127Z,52.00
2023-05-14T03:36:18.935Z,52.60
2023-05-14T03:38:47.934Z,54.60
2023-05-14T03:41:15.498Z,55.80
2023-05-14T03:43:42.737Z,52.87
2023-05-14T03:46:09.531Z,54.70
2023-05-14T03:48:36.595Z,55.83
2023-05-14T03:51:04.921Z,55.00
2023-05-14T03:53:31.701Z,55.27
2023-05-14T03:55:58.613Z,56.60
2023-05-14T03:58:25.579Z,58.30
2023-05-14T04:00:53.709Z,57.47
2023-05-14T04:03:20.638Z,55.60
2023-05-14T04:05:47.653Z,57.63
2023-05-14T04:08:14.467Z,56.97
2023-05-14T04:10:43.041Z,60.57
2023-05-14T04:13:09.888Z,59.47
2023-05-14T04:15:39.990Z,56.20
2023-05-14T04:18:07.668Z,58.43
2023-05-14T04:20:34.588Z,58.20
2023-05-14T04:23:01.358Z,56.50
2023-05-14T04:25:28.182Z,60.50
2023-05-14T04:27:54.946Z,57.33
2023-05-14T04:30:22.264Z,58.97
2023-05-14T04:32:49.153Z,57.00
2023-05-14T04:35:16.266Z,58.43
2023-05-14T04:37:43.040Z,56.83
2023-05-14T04:40:11.341Z,56.47
2023-05-14T04:42:38.910Z,57.57
2023-05-14T04:45:06.843Z,55.10
2023-05-14T04:47:33.837Z,55.73
2023-05-14T04:50:00.704Z,58.27
2023-05-14T04:52:27.708Z,54.63
2023-05-14T04:54:54.926Z,57.53
2023-05-14T04:57:21.834Z,57.07
2023-05-14T04:59:48.619Z,59.67
2023-05-14T05:02:15.502Z,59.27
2023-05-14T05:04:42.271Z,57.10
2023-05-14T05:07:09.027Z,57.00
2023-05-14T05:09:35.827Z,56.23
2023-05-14T05:12:02.646Z,57.87
2023-05-14T05:14:29.621Z,55.47
2023-05-14T05:16:56.548Z,55.30
2023-05-14T05:19:35.843Z,52.23
2023-05-14T05:22:06.951Z,50.60
2023-05-14T05:24:33.771Z,53.43
2023-05-14T05:27:00.648Z,54.00
2023-05-14T05:29:27.478Z,55.27
2023-05-14T05:31:54.371Z,53.17
2023-05-14T05:34:21.463Z,53.80
2023-05-14T05:36:48.312Z,53.57
2023-05-14T05:39:15.112Z,52.63
2023-05-14T05:41:43.592Z,53.87
2023-05-14T05:44:10.444Z,56.73
2023-05-14T05:46:37.685Z,53.07
2023-05-14T05:49:04.536Z,52.43
2023-05-14T05:51:31.447Z,54.80
2023-05-14T05:53:58.389Z,56.67
2023-05-14T05:56:25.182Z,51.70
2023-05-14T05:58:52.138Z,53.30
2023-05-14T06:01:18.920Z,52.13
2023-05-14T06:03:48.260Z,52.47
2023-05-14T06:06:15.738Z,54.47
2023-05-14T06:08:42.612Z,55.03
2023-05-14T06:11:09.426Z,53.00
2023-05-14T06:13:36.178Z,52.30
2023-05-14T06:16:03.013Z,52.70
2023-05-14T06:18:29.867Z,56.90
2023-05-14T06:20:57.360Z,52.73
2023-05-14T06:23:24.084Z,52.60
2023-05-14T06:25:51.128Z,53.90
2023-05-14T06:28:17.986Z,55.53
2023-05-14T06:30:44.756Z,52.00
2023-05-14T06:33:13.425Z,51.97
2023-05-14T06:35:40.417Z,51.57
2023-05-14T06:38:07.144Z,52.23
2023-05-14T06:40:33.934Z,52.10
2023-05-14T06:43:00.699Z,54.30
2023-05-14T06:45:27.458Z,52.23
2023-05-14T06:47:55.707Z,55.20
2023-05-14T06:50:22.710Z,53.67
2023-05-14T06:52:49.645Z,55.63
2023-05-14T06:55:16.543Z,52.77
2023-05-14T06:57:44.046Z,55.63
2023-05-14T07:00:11.270Z,53.97
2023-05-14T07:02:38.060Z,51.53
2023-05-14T07:05:05.069Z,54.17
2023-05-14T07:07:31.831Z,48.33
2023-05-14T07:09:58.659Z,46.30
2023-05-14T07:12:25.820Z,46.03
2023-05-14T07:14:52.665Z,46.90
2023-05-14T07:17:19.493Z,48.60
2023-05-14T07:19:47.334Z,48.07
2023-05-14T07:22:14.171Z,45.40
2023-05-14T07:24:41.000Z,43.53
2023-05-14T07:27:08.627Z,43.67
2023-05-14T07:29:35.498Z,44.77
2023-05-14T07:32:02.345Z,46.03
2023-05-14T07:34:29.118Z,43.47
2023-05-14T07:36:56.215Z,41.80
2023-05-14T07:39:22.986Z,40.63
2023-05-14T07:41:50.172Z,39.40
2023-05-14T07:44:17.108Z,42.87
2023-05-14T07:46:43.926Z,40.70
2023-05-14T07:49:10.817Z,39.90
2023-05-14T07:51:37.833Z,39.27
2023-05-14T07:54:05.096Z,39.90
2023-05-14T07:56:32.161Z,43.37
2023-05-14T07:58:59.237Z,45.67
2023-05-14T08:01:26.363Z,43.10
2023-05-14T08:03:53.219Z,42.63
2023-05-14T08:06:21.801Z,43.87
2023-05-14T08:08:48.851Z,44.90
2023-05-14T08:11:15.807Z,43.77
2023-05-14T08:13:42.687Z,44.43
2023-05-14T08:16:09.752Z,44.97
2023-05-14T08:18:36.644Z,44.70
2023-05-14T08:21:03.801Z,42.33
2023-05-14T08:23:30.816Z,43.20
2023-05-14T08:25:57.710Z,44.07
2023-05-14T08:28:24.526Z,40.87
2023-05-14T08:30:51.566Z,40.63
2023-05-14T08:33:18.590Z,42.37
2023-05-14T08:35:45.452Z,43.73
2023-05-14T08:38:12.354Z,44.53
2023-05-14T08:40:39.347Z,43.70
2023-05-14T08:43:07.572Z,43.50
2023-05-14T08:45:35.410Z,41.60
2023-05-14T08:48:06.737Z,41.23
2023-05-14T08:50:33.876Z,40.87
2023-05-14T08:53:00.672Z,42.17
2023-05-14T08:55:28.448Z,40.27
2023-05-14T08:57:56.154Z,40.57
2023-05-14T09:00:23.495Z,40.40
2023-05-14T09:02:51.519Z,37.80
2023-05-14T09:05:19.462Z,37.43
2023-05-14T09:07:46.718Z,37.20
2023-05-14T09:10:15.447Z,37.70
2023-05-14T09:12:42.373Z,36.93
2023-05-14T09:15:09.625Z,36.60
2023-05-14T09:17:36.594Z,36.90
2023-05-14T09:20:04.563Z,36.93
2023-05-14T09:22:32.335Z,35.20
2023-05-14T09:25:07.462Z,39.27
2023-05-14T09:27:34.717Z,36.93
2023-05-14T09:30:06.375Z,38.73
2023-05-14T09:32:38.044Z,39.83
2023-05-14T09:35:18.904Z,36.77
2023-05-14T09:37:51.184Z,35.80
2023-05-14T09:40:19.624Z,36.80
2023-05-14T09:42:48.202Z,37.13
2023-05-14T09:45:15.619Z,36.00
2023-05-14T09:47:42.536Z,34.83
2023-05-14T09:50:09.713Z,38.07
2023-05-14T09:52:37.300Z,37.43
2023-05-14T09:55:04.481Z,37.40
2023-05-14T09:57:31.396Z,35.83
2023-05-14T09:59:58.229Z,36.83
2023-05-14T10:02:30.184Z,36.90
2023-05-14T10:05:02.470Z,34.00
2023-05-14T10:07:47.632Z,34.30
2023-05-14T10:10:18.603Z,36.57
2023-05-14T10:12:56.183Z,36.30
2023-05-14T10:15:50.051Z,32.70
2023-05-14T10:18:19.700Z,30.83
2023-05-14T10:20:52.957Z,31.87
2023-05-14T10:23:20.086Z,32.57
2023-05-14T10:25:46.958Z,32.90
2023-05-14T10:28:13.898Z,33.43
2023-05-14T10:30:46.926Z,32.00
2023-05-14T10:33:16.536Z,32.00
2023-05-14T10:36:03.910Z,32.40
2023-05-14T10:38:36.534Z,32.93
2023-05-14T10:41:11.666Z,31.87
2023-05-14T10:43:42.318Z,32.23
2023-05-14T10:46:11.292Z,32.17
2023-05-14T10:48:41.562Z,33.43
2023-05-14T10:51:10.208Z,30.87
2023-05-14T10:53:39.510Z,31.40
2023-05-14T10:56:14.218Z,31.03
2023-05-14T10:58:43.792Z,30.30
2023-05-14T11:01:13.192Z,30.30
2023-05-14T11:03:45.276Z,29.80
2023-05-14T11:06:14.916Z,28.97
2023-05-14T11:08:42.610Z,29.73
2023-05-14T11:11:10.747Z,29.60
2023-05-14T11:13:38.008Z,29.37
2023-05-14T11:16:18.954Z,29.83
2023-05-14T11:19:00.802Z,29.20
2023-05-14T11:21:27.908Z,28.80
2023-05-14T11:23:55.660Z,28.97
2023-05-14T11:26:23.954Z,27.30
2023-05-14T11:28:50.947Z,27.37
2023-05-14T11:31:18.087Z,28.10
2023-05-14T11:33:44.905Z,26.83
2023-05-14T11:36:12.497Z,27.73
2023-05-14T11:38:49.439Z,27.87
2023-05-14T11:41:16.212Z,27.70
2023-05-14T11:43:43.199Z,27.53
2023-05-14T11:46:18.059Z,26.93
2023-05-14T11:48:45.581Z,26.83
2023-05-14T11:51:12.684Z,27.33
2023-05-14T11:53:39.639Z,27.40
2023-05-14T11:56:08.269Z,28.83
2023-05-14T11:58:36.605Z,27.97
2023-05-14T12:01:03.473Z,26.97
2023-05-14T12:03:30.978Z,28.70
2023-05-14T12:05:59.819Z,28.13
2023-05-14T12:08:29.106Z,27.27
2023-05-14T12:10:57.767Z,27.73
2023-05-14T12:13:31.846Z,28.57
2023-05-14T12:16:01.974Z,29.17
2023-05-14T12:18:33.553Z,28.30
2023-05-14T12:21:05.098Z,28.87
2023-05-14T12:23:32.875Z,27.00
2023-05-14T12:26:07.528Z,28.27
2023-05-14T12:28:38.007Z,27.70
2023-05-14T12:31:04.978Z,29.10
2023-05-14T12:33:31.770Z,27.20
2023-05-14T12:36:07.405Z,26.93
2023-05-14T12:38:41.585Z,27.20
2023-05-14T12:41:08.344Z,28.20
2023-05-14T12:43:35.090Z,29.37
2023-05-14T12:46:01.904Z,26.70
2023-05-14T12:48:28.708Z,26.93
2023-05-14T12:50:55.566Z,27.10
2023-05-14T12:53:22.430Z,27.83
2023-05-14T12:55:49.689Z,26.27
2023-05-14T12:58:16.488Z,26.43
2023-05-14T13:00:43.336Z,26.80
2023-05-14T13:03:10.272Z,26.30
2023-05-14T13:05:37.658Z,26.30
2023-05-14T13:08:04.468Z,26.23
2023-05-14T13:10:31.304Z,26.13
2023-05-14T13:12:58.224Z,26.83
2023-05-14T13:15:25.390Z,28.23
2023-05-14T13:17:52.751Z,27.57
2023-05-14T13:20:19.877Z,27.63
2023-05-14T13:22:46.652Z,27.63
2023-05-14T13:25:13.472Z,28.30
2023-05-14T13:27:40.254Z,28.63
2023-05-14T13:30:07.659Z,28.53
2023-05-14T13:32:34.620Z,27.80
2023-05-14T13:35:01.470Z,27.60
2023-05-14T13:37:28.572Z,28.23
2023-05-14T13:39:55.710Z,27.83
2023-05-14T13:42:23.580Z,27.57
2023-05-14T13:44:50.744Z,27.70
2023-05-14T13:47:17.885Z,27.80
2023-05-14T13:49:44.896Z,29.20
2023-05-14T13:52:11.658Z,29.80
2023-05-14T13:54:38.540Z,28.53
2023-05-14T13:57:05.613Z,28.60
2023-05-14T13:59:32.401Z,28.40
2023-05-14T14:01:59.261Z,27.47
2023-05-14T14:04:28.977Z,29.10
2023-05-14T14:06:56.606Z,27.40
2023-05-14T14:09:23.925Z,28.37
2023-05-14T14:11:50.953Z,29.87
2023-05-14T14:14:18.340Z,28.40
2023-05-14T14:16:45.242Z,28.67
2023-05-14T14:19:12.390Z,29.20
2023-05-14T14:21:42.648Z,29.13
2023-05-14T14:24:09.530Z,28.87
2023-05-14T14:26:36.518Z,29.30
2023-05-14T14:29:03.371Z,30.03
2023-05-14T14:31:30.290Z,30.73
2023-05-14T14:33:57.173Z,29.83
2023-05-14T14:36:23.962Z,28.90
2023-05-14T14:38:51.179Z,29.80
2023-05-14T14:41:18.141Z,29.00
2023-05-14T14:43:44.939Z,29.23
2023-05-14T14:46:11.776Z,31.93
2023-05-14T14:48:38.650Z,28.63
2023-05-14T14:51:07.576Z,29.43
2023-05-14T14:53:36.216Z,29.67
2023-05-14T14:56:04.443Z,30.93
2023-05-14T14:58:31.430Z,29.80
2023-05-14T15:00:58.928Z,29.27
2023-05-14T15:03:26.701Z,29.70
2023-05-14T15:05:53.990Z,30.10
2023-05-14T15:08:30.110Z,30.03
2023-05-14T15:10:57.017Z,30.27
2023-05-14T15:13:24.730Z,30.53
2023-05-14T15:15:52.512Z,29.57
2023-05-14T15:18:19.496Z,30.30
2023-05-14T15:20:46.413Z,31.50
2023-05-14T15:23:13.250Z,31.70
2023-05-14T15:25:40.131Z,31.03
2023-05-14T15:28:07.661Z,30.70
2023-05-14T15:30:34.715Z,32.63
2023-05-14T15:33:01.851Z,30.80
2023-05-14T15:35:28.762Z,31.90
2023-05-14T15:37:57.284Z,33.60
2023-05-14T15:40:24.282Z,30.33
2023-05-14T15:42:51.287Z,30.93
2023-05-14T15:45:18.100Z,31.57
2023-05-14T15:47:48.098Z,29.83
2023-05-14T15:50:14.912Z,30.67
2023-05-14T15:52:41.851Z,30.73
2023-05-14T15:55:09.527Z,30.10
2023-05-14T15:57:36.375Z,30.87
2023-05-14T16:00:10.439Z,31.40
2023-05-14T16:02:39.215Z,30.80
2023-05-14T16:05:07.686Z,31.97
2023-05-14T16:07:34.570Z,31.47
2023-05-14T16:10:01.372Z,30.43
2023-05-14T16:12:28.349Z,32.70
2023-05-14T16:14:56.963Z,31.77
2023-05-14T16:17:24.023Z,31.93
2023-05-14T16:19:51.159Z,33.07
2023-05-14T16:22:19.033Z,32.00
2023-05-14T16:24:45.985Z,32.37
2023-05-14T16:27:12.871Z,32.23
2023-05-14T16:29:39.733Z,31.00
2023-05-14T16:32:06.839Z,30.77
2023-05-14T16:34:33.734Z,31.90
2023-05-14T16:37:00.853Z,31.60
2023-05-14T16:39:27.822Z,32.03
2023-05-14T16:41:54.585Z,33.30
2023-05-14T16:44:21.447Z,32.97
2023-05-14T16:46:48.613Z,32.23
2023-05-14T16:49:15.536Z,33.70
2023-05-14T16:51:43.892Z,32.23
2023-05-14T16:54:10.993Z,31.83
2023-05-14T16:56:37.907Z,32.70
2023-05-14T16:59:04.750Z,32.43
2023-05-14T17:01:32.218Z,30.90
2023-05-14T17:03:59.222Z,30.90
2023-05-14T17:06:26.152Z,31.00
2023-05-14T17:08:52.914Z,31.33
2023-05-14T17:11:21.039Z,31.70
2023-05-14T17:13:47.815Z,33.90
2023-05-14T17:16:14.749Z,36.67
2023-05-14T17:18:41.711Z,36.03
2023-05-14T17:21:08.801Z,33.73
2023-05-14T17:23:35.565Z,34.87
2023-05-14T17:26:02.529Z,35.77
2023-05-14T17:28:30.036Z,37.03
2023-05-14T17:30:57.170Z,37.87
2023-05-14T17:33:24.276Z,39.77
2023-05-14T17:35:51.944Z,39.87
2023-05-14T17:38:18.770Z,40.97
2023-05-14T17:40:45.605Z,39.87
2023-05-14T17:43:12.568Z,40.90
2023-05-14T17:45:52.552Z,40.10
2023-05-14T17:48:21.183Z,39.30
2023-05-14T17:50:48.275Z,39.20
2023-05-14T17:53:15.092Z,40.47
2023-05-14T17:55:43.683Z,40.70
2023-05-14T17:58:15.485Z,40.80
2023-05-14T18:00:43.469Z,39.07
2023-05-14T18:03:11.323Z,40.70
2023-05-14T18:05:38.435Z,41.43
2023-05-14T18:08:05.508Z,41.53
2023-05-14T18:10:32.367Z,43.97
2023-05-14T18:12:59.259Z,40.53
2023-05-14T18:15:27.344Z,42.33
2023-05-14T18:17:54.468Z,42.43
2023-05-14T18:20:21.497Z,44.47
2023-05-14T18:22:49.307Z,45.60
2023-05-14T18:25:16.516Z,44.63
2023-05-14T18:27:45.008Z,46.43
2023-05-14T18:30:14.520Z,46.53
2023-05-14T18:32:43.638Z,46.53
2023-05-14T18:35:11.515Z,45.03
2023-05-14T18:37:38.625Z,46.60
2023-05-14T18:40:06.980Z,46.13
2023-05-14T18:42:35.066Z,45.47
2023-05-14T18:45:02.279Z,43.70
2023-05-14T18:47:29.273Z,44.53
2023-05-14T18:49:58.938Z,43.07
2023-05-14T18:52:26.438Z,42.87
2023-05-14T18:54:54.666Z,42.40
2023-05-14T18:57:21.887Z,42.47
2023-05-14T18:59:48.860Z,42.77
2023-05-14T19:02:16.238Z,41.97
2023-05-14T19:04:51.650Z,42.33
2023-05-14T19:07:20.115Z,43.50
2023-05-14T19:09:46.936Z,44.57
2023-05-14T19:12:14.240Z,46.17
2023-05-14T19:14:41.249Z,47.03
2023-05-14T19:17:08.128Z,44.17
2023-05-14T19:19:35.177Z,47.57
2023-05-14T19:22:02.027Z,46.30
2023-05-14T19:24:28.911Z,45.77
2023-05-14T19:26:55.928Z,46.63
2023-05-14T19:29:22.765Z,47.97
2023-05-14T19:31:50.026Z,49.07
2023-05-14T19:34:16.991Z,47.00
2023-05-14T19:36:43.756Z,48.97
2023-05-14T19:39:10.937Z,47.27
2023-05-14T19:41:37.933Z,46.73
2023-05-14T19:44:04.790Z,46.63
2023-05-14T19:46:31.724Z,47.43
2023-05-14T19:48:58.616Z,47.00
2023-05-14T19:51:25.615Z,48.83
2023-05-14T19:53:52.431Z,48.40
2023-05-14T19:56:19.319Z,47.77
2023-05-14T19:58:46.078Z,47.97
2023-05-14T20:01:13.076Z,48.10
2023-05-14T20:03:40.091Z,49.07
2023-05-14T20:06:07.846Z,48.57
2023-05-14T20:08:34.730Z,48.10
2023-05-14T20:11:01.852Z,46.90
2023-05-14T20:13:31.766Z,50.65
2023-05-14T20:15:58.956Z,44.40
2023-05-14T20:18:25.954Z,44.00
2023-05-14T20:20:52.746Z,44.53
2023-05-14T20:23:20.552Z,43.30
2023-05-14T20:25:47.844Z,42.70
2023-05-14T20:28:14.822Z,46.27
2023-05-14T20:30:41.723Z,48.90
2023-05-14T20:33:08.651Z,47.23
2023-05-14T20:35:36.020Z,48.93
2023-05-14T20:38:03.742Z,49.33
2023-05-14T20:40:32.646Z,48.20
2023-05-14T20:42:59.638Z,49.37
2023-05-14T20:45:26.712Z,50.43
2023-05-14T20:47:53.916Z,47.50
2023-05-14T20:50:22.503Z,46.30
2023-05-14T20:52:49.257Z,49.63
2023-05-14T20:55:16.154Z,47.53
2023-05-14T20:57:43.559Z,48.10
2023-05-14T21:00:11.368Z,50.00
2023-05-14T21:02:38.434Z,48.17
2023-05-14T21:05:05.816Z,49.67
2023-05-14T21:07:32.855Z,46.50
2023-05-14T21:09:59.711Z,48.00
2023-05-14T21:12:26.482Z,47.47
2023-05-14T21:14:53.289Z,46.50
2023-05-14T21:17:20.089Z,48.20
2023-05-14T21:19:46.925Z,48.10
2023-05-14T21:22:13.991Z,49.07
2023-05-14T21:24:40.875Z,48.70
2023-05-14T21:27:07.765Z,49.73
2023-05-14T21:29:34.643Z,47.20
2023-05-14T21:32:01.657Z,48.97
2023-05-14T21:34:31.122Z,50.17
2023-05-14T21:36:58.954Z,48.83
2023-05-14T21:39:25.900Z,47.73
2023-05-14T21:41:52.716Z,48.23
2023-05-14T21:44:19.476Z,48.00
2023-05-14T21:46:47.269Z,50.20
2023-05-14T21:49:14.092Z,47.67
2023-05-14T21:51:40.882Z,47.03
2023-05-14T21:54:07.820Z,49.03
2023-05-14T21:56:35.921Z,47.20
2023-05-14T21:59:02.845Z,47.03
2023-05-14T22:01:29.639Z,47.97
2023-05-14T22:03:57.934Z,94.00
2023-05-14T22:06:25.209Z,53.05
2023-05-14T22:08:52.005Z,52.90
2023-05-14T22:11:18.926Z,49.40
2023-05-14T22:13:45.770Z,50.43
2023-05-14T22:16:14.039Z,51.70
2023-05-14T22:18:41.510Z,50.57
2023-05-14T22:21:08.496Z,50.43
2023-05-14T22:23:35.289Z,52.07
2023-05-14T22:26:02.053Z,50.30
2023-05-14T22:28:29.006Z,52.33
2023-05-14T22:30:56.602Z,54.73
2023-05-14T22:33:23.476Z,52.47
2023-05-14T22:35:50.604Z,50.83
2023-05-14T22:38:17.426Z,55.37
2023-05-14T22:40:44.256Z,50.70
2023-05-14T22:43:11.162Z,49.70
2023-05-14T22:45:37.973Z,49.47
2023-05-14T22:48:04.952Z,54.23
2023-05-14T22:50:31.948Z,53.73
2023-05-14T22:52:58.672Z,56.00
2023-05-14T22:55:25.617Z,54.20
2023-05-14T22:57:52.578Z,56.03
2023-05-14T23:00:19.636Z,54.77
2023-05-14T23:02:46.408Z,51.13
2023-05-14T23:05:13.414Z,52.00
2023-05-14T23:07:40.508Z,57.57
2023-05-14T23:10:07.737Z,54.87
2023-05-14T23:12:34.560Z,52.90
2023-05-14T23:15:01.495Z,52.80
2023-05-14T23:17:28.573Z,51.80
2023-05-14T23:19:55.730Z,52.33
2023-05-14T23:22:22.550Z,54.80
2023-05-14T23:24:49.375Z,55.07
2023-05-14T23:27:16.467Z,56.43
2023-05-14T23:29:43.222Z,55.83
2023-05-14T23:32:10.141Z,57.70
2023-05-14T23:34:36.973Z,54.13
2023-05-14T23:37:03.772Z,54.23
2023-05-14T23:39:30.612Z,53.43
2023-05-14T23:41:57.333Z,55.60
2023-05-14T23:44:24.107Z,56.10
2023-05-14T23:46:51.005Z,55.10
2023-05-14T23:49:17.879Z,56.17
2023-05-14T23:51:44.748Z,54.97
2023-05-14T23:54:11.750Z,53.50
2023-05-14T23:56:38.698Z,53.53
2023-05-14T23:59:05.630Z,51.53
